createdAt,value
2023-03-20T00:00:52.821Z,38.15
2023-03-20T00:01:55.568Z,40.90
2023-03-20T00:02:57.601Z,38.20
2023-03-20T00:03:59.625Z,40.38
2023-03-20T00:05:01.670Z,39.50
2023-03-20T00:06:05.727Z,39.35
2023-03-20T00:07:12.115Z,40.40
2023-03-20T00:08:14.254Z,38.60
2023-03-20T00:09:17.986Z,35.33
2023-03-20T00:10:21.138Z,39.78
2023-03-20T00:11:38.671Z,39.72
2023-03-20T00:12:42.184Z,39.67
2023-03-20T00:13:46.020Z,38.65
2023-03-20T00:14:48.021Z,40.40
2023-03-20T00:15:50.089Z,39.58
2023-03-20T00:16:52.792Z,41.25
2023-03-20T00:17:55.958Z,42.97
2023-03-20T00:18:59.563Z,41.40
2023-03-20T00:20:01.732Z,42.28
2023-03-20T00:21:04.150Z,41.45
2023-03-20T00:22:06.132Z,43.28
2023-03-20T00:23:08.366Z,42.10
2023-03-20T00:24:10.367Z,44.38
2023-03-20T00:25:21.446Z,43.90
2023-03-20T00:26:33.202Z,44.78
2023-03-20T00:27:35.526Z,45.15
2023-03-20T00:28:45.931Z,45.20
2023-03-20T00:29:48.384Z,42.88
2023-03-20T00:30:51.354Z,41.65
2023-03-20T00:31:54.665Z,44.80
2023-03-20T00:32:58.730Z,44.97
2023-03-20T00:34:03.696Z,42.58
2023-03-20T00:35:29.850Z,43.17
2023-03-20T00:36:32.248Z,43.83
2023-03-20T00:37:34.194Z,41.67
2023-03-20T00:38:37.090Z,40.30
2023-03-20T00:39:43.566Z,41.35
2023-03-20T00:40:45.556Z,34.85
2023-03-20T00:42:02.110Z,34.45
2023-03-20T00:43:05.203Z,33.88
2023-03-20T00:44:28.197Z,33.10
2023-03-20T00:45:32.621Z,32.25
2023-03-20T00:46:38.616Z,34.15
2023-03-20T00:47:41.985Z,32.88
2023-03-20T00:48:52.038Z,31.92
2023-03-20T00:50:20.894Z,32.75
2023-03-20T00:52:28.713Z,34.00
2023-03-20T00:53:34.038Z,35.03
2023-03-20T00:54:39.084Z,35.55
2023-03-20T00:55:41.216Z,37.15
2023-03-20T00:56:49.506Z,36.58
2023-03-20T00:58:02.025Z,35.63
2023-03-20T00:59:05.054Z,34.47
2023-03-20T01:00:21.875Z,36.97
2023-03-20T01:01:24.342Z,36.72
2023-03-20T01:02:31.804Z,33.92
2023-03-20T01:03:35.902Z,35.58
2023-03-20T01:04:41.512Z,35.92
2023-03-20T01:05:45.084Z,33.63
2023-03-20T01:06:47.342Z,32.83
2023-03-20T01:07:49.952Z,30.80
2023-03-20T01:08:52.001Z,31.67
2023-03-20T01:09:55.718Z,31.92
2023-03-20T01:10:59.238Z,31.33
2023-03-20T01:12:05.655Z,31.88
2023-03-20T01:13:25.664Z,33.05
2023-03-20T01:14:27.903Z,31.98
2023-03-20T01:15:34.389Z,30.73
2023-03-20T01:16:36.514Z,32.30
2023-03-20T01:17:38.627Z,32.90
2023-03-20T01:18:43.322Z,31.48
2023-03-20T01:19:45.297Z,32.10
2023-03-20T01:20:50.941Z,33.05
2023-03-20T01:21:57.799Z,32.13
2023-03-20T01:22:59.790Z,32.13
2023-03-20T01:24:02.096Z,30.75
2023-03-20T01:25:05.581Z,31.33
2023-03-20T01:26:35.139Z,30.10
2023-03-20T01:27:37.553Z,33.25
2023-03-20T01:28:42.340Z,33.67
2023-03-20T01:29:50.321Z,33.95
2023-03-20T01:30:57.010Z,33.53
2023-03-20T01:31:59.752Z,35.75
2023-03-20T01:33:09.529Z,36.05
2023-03-20T01:34:12.166Z,34.42
2023-03-20T01:35:22.321Z,35.22
2023-03-20T01:36:25.003Z,30.50
2023-03-20T01:37:28.385Z,31.58
2023-03-20T01:38:30.527Z,32.22
2023-03-20T01:39:35.297Z,30.98
2023-03-20T01:40:40.280Z,30.55
2023-03-20T01:41:42.426Z,30.60
2023-03-20T01:42:44.531Z,30.45
2023-03-20T01:43:47.103Z,27.35
2023-03-20T01:44:49.296Z,29.63
2023-03-20T01:46:00.076Z,31.20
2023-03-20T01:47:12.656Z,30.15
2023-03-20T01:48:19.598Z,29.17
2023-03-20T01:49:21.736Z,30.25
2023-03-20T01:50:31.120Z,29.63
2023-03-20T01:51:33.651Z,30.15
2023-03-20T01:52:35.760Z,31.90
2023-03-20T01:53:37.889Z,30.58
2023-03-20T01:54:40.388Z,30.08
2023-03-20T01:55:44.130Z,30.08
2023-03-20T01:57:00.800Z,30.67
2023-03-20T01:58:08.314Z,30.38
2023-03-20T01:59:36.514Z,29.10
2023-03-20T02:00:38.521Z,29.50
2023-03-20T02:01:42.008Z,27.55
2023-03-20T02:02:50.259Z,26.88
2023-03-20T02:03:56.826Z,26.17
2023-03-20T02:05:05.598Z,28.33
2023-03-20T02:06:09.971Z,26.42
2023-03-20T02:07:16.860Z,26.40
2023-03-20T02:08:25.166Z,26.45
2023-03-20T02:09:27.678Z,26.02
2023-03-20T02:10:29.990Z,25.75
2023-03-20T02:11:32.417Z,26.83
2023-03-20T02:12:35.955Z,28.55
2023-03-20T02:13:38.929Z,27.50
2023-03-20T02:14:43.751Z,28.17
2023-03-20T02:16:03.491Z,29.05
2023-03-20T02:17:09.458Z,27.95
2023-03-20T02:18:14.922Z,26.98
2023-03-20T02:19:47.963Z,26.23
2023-03-20T02:21:15.228Z,27.40
2023-03-20T02:22:39.045Z,27.73
2023-03-20T02:23:59.601Z,28.20
2023-03-20T02:25:40.608Z,27.60
2023-03-20T02:27:00.418Z,29.50
2023-03-20T02:28:24.502Z,29.73
2023-03-20T02:29:51.295Z,28.20
2023-03-20T02:32:55.725Z,29.50
2023-03-20T02:34:06.432Z,29.80
2023-03-20T02:35:51.958Z,30.05
2023-03-20T02:37:33.065Z,29.30
2023-03-20T02:39:04.030Z,31.42
2023-03-20T02:40:10.240Z,29.92
2023-03-20T02:41:27.882Z,30.73
2023-03-20T02:42:32.587Z,29.80
2023-03-20T02:43:57.417Z,26.48
2023-03-20T02:45:14.133Z,27.67
2023-03-20T02:46:21.909Z,26.88
2023-03-20T02:47:41.133Z,27.63
2023-03-20T02:49:02.833Z,28.08
2023-03-20T02:50:18.528Z,28.92
2023-03-20T02:51:36.490Z,32.35
2023-03-20T02:53:15.598Z,30.75
2023-03-20T02:54:25.790Z,29.83
2023-03-20T02:55:40.473Z,29.88
2023-03-20T02:57:04.772Z,30.42
2023-03-20T02:58:15.097Z,29.63
2023-03-20T02:59:53.387Z,27.35
2023-03-20T03:01:04.297Z,29.20
2023-03-20T03:02:10.653Z,25.05
2023-03-20T03:03:18.723Z,25.73
2023-03-20T03:04:32.716Z,23.90
2023-03-20T03:05:46.187Z,25.05
2023-03-20T03:06:55.961Z,24.42
2023-03-20T03:08:07.899Z,23.92
2023-03-20T03:09:41.614Z,23.50
2023-03-20T03:10:49.461Z,23.42
2023-03-20T03:12:02.352Z,22.92
2023-03-20T03:13:07.856Z,23.00
2023-03-20T03:14:37.475Z,23.55
2023-03-20T03:15:46.766Z,22.63
2023-03-20T03:16:51.128Z,23.65
2023-03-20T03:17:53.675Z,23.77
2023-03-20T03:19:16.467Z,23.85
2023-03-20T03:20:32.650Z,24.65
2023-03-20T03:21:39.012Z,25.40
2023-03-20T03:22:41.552Z,26.48
2023-03-20T03:23:50.492Z,26.17
2023-03-20T03:24:54.705Z,26.67
2023-03-20T03:26:01.734Z,25.08
2023-03-20T03:27:13.579Z,24.95
2023-03-20T03:29:39.753Z,24.02
2023-03-20T03:30:45.634Z,23.98
2023-03-20T03:31:48.482Z,23.05
2023-03-20T03:33:07.366Z,23.63
2023-03-20T03:34:14.254Z,23.45
2023-03-20T03:35:21.899Z,24.40
2023-03-20T03:36:53.742Z,23.75
2023-03-20T03:38:01.290Z,22.88
2023-03-20T03:39:27.644Z,23.27
2023-03-20T03:40:41.385Z,23.55
2023-03-20T03:41:45.874Z,23.15
2023-03-20T03:43:16.793Z,22.42
2023-03-20T03:44:29.089Z,22.15
2023-03-20T03:45:44.810Z,22.63
2023-03-20T03:47:15.118Z,22.50
2023-03-20T03:48:25.261Z,22.08
2023-03-20T03:49:35.938Z,22.13
2023-03-20T03:50:49.112Z,22.83
2023-03-20T03:51:56.980Z,22.95
2023-03-20T03:53:06.392Z,21.90
2023-03-20T03:54:32.367Z,22.63
2023-03-20T03:55:40.173Z,21.10
2023-03-20T03:56:47.512Z,21.33
2023-03-20T03:57:56.781Z,20.55
2023-03-20T03:59:06.991Z,20.90
2023-03-20T04:00:13.461Z,21.80
2023-03-20T04:01:17.819Z,20.80
2023-03-20T04:02:22.366Z,20.10
2023-03-20T04:03:30.761Z,21.65
2023-03-20T04:04:34.267Z,20.50
2023-03-20T04:05:43.018Z,21.60
2023-03-20T04:06:45.241Z,20.98
2023-03-20T04:07:48.808Z,21.30
2023-03-20T04:08:58.094Z,22.45
2023-03-20T04:10:00.140Z,21.83
2023-03-20T04:11:02.964Z,21.27
2023-03-20T04:12:07.194Z,22.25
2023-03-20T04:13:10.837Z,22.27
2023-03-20T04:14:15.964Z,21.30
2023-03-20T04:15:21.813Z,21.92
2023-03-20T04:16:26.387Z,20.67
2023-03-20T04:17:28.545Z,20.98
2023-03-20T04:18:30.845Z,22.88
2023-03-20T04:19:32.807Z,21.25
2023-03-20T04:20:35.140Z,21.65
2023-03-20T04:21:37.059Z,21.23
2023-03-20T04:22:39.780Z,20.58
2023-03-20T04:23:42.371Z,20.45
2023-03-20T04:24:44.475Z,21.23
2023-03-20T04:25:46.706Z,21.55
2023-03-20T04:26:50.041Z,22.02
2023-03-20T04:27:52.632Z,21.48
2023-03-20T04:28:56.117Z,20.83
2023-03-20T04:29:58.727Z,21.50
2023-03-20T04:31:02.383Z,21.05
2023-03-20T04:32:04.692Z,21.33
2023-03-20T04:33:07.496Z,21.48
2023-03-20T04:34:09.724Z,21.42
2023-03-20T04:35:14.150Z,21.38
2023-03-20T04:36:16.636Z,22.05
2023-03-20T04:37:19.187Z,23.08
2023-03-20T04:38:23.225Z,23.25
2023-03-20T04:39:26.221Z,22.88
2023-03-20T04:40:28.578Z,22.20
2023-03-20T04:41:31.712Z,21.77
2023-03-20T04:42:36.266Z,22.48
2023-03-20T04:43:38.343Z,23.10
2023-03-20T04:44:42.177Z,23.10
2023-03-20T04:45:44.252Z,23.13
2023-03-20T04:46:46.212Z,23.80
2023-03-20T04:47:53.349Z,24.13
2023-03-20T04:48:59.063Z,22.85
2023-03-20T04:50:01.393Z,22.63
2023-03-20T04:51:03.513Z,22.98
2023-03-20T04:52:05.651Z,23.17
2023-03-20T04:53:08.078Z,22.98
2023-03-20T04:54:10.464Z,22.70
2023-03-20T04:55:12.665Z,22.70
2023-03-20T04:56:14.907Z,22.23
2023-03-20T04:57:17.157Z,21.90
2023-03-20T04:58:19.983Z,21.83
2023-03-20T04:59:22.188Z,22.30
2023-03-20T05:00:28.749Z,22.52
2023-03-20T05:01:30.866Z,23.27
2023-03-20T05:02:32.979Z,22.40
2023-03-20T05:03:35.606Z,21.70
2023-03-20T05:04:37.696Z,21.00
2023-03-20T05:05:39.800Z,22.17
2023-03-20T05:06:41.865Z,21.33
2023-03-20T05:07:43.758Z,22.27
2023-03-20T05:08:45.681Z,21.40
2023-03-20T05:09:47.867Z,22.58
2023-03-20T05:10:49.800Z,22.40
2023-03-20T05:11:51.731Z,21.70
2023-03-20T05:12:54.647Z,21.88
2023-03-20T05:13:56.640Z,21.70
2023-03-20T05:14:58.604Z,21.83
2023-03-20T05:16:01.271Z,21.17
2023-03-20T05:17:03.219Z,22.23
2023-03-20T05:18:05.143Z,22.92
2023-03-20T05:19:07.506Z,22.15
2023-03-20T05:20:09.990Z,21.10
2023-03-20T05:21:12.358Z,22.00
2023-03-20T05:22:14.306Z,22.42
2023-03-20T05:23:16.573Z,21.60
2023-03-20T05:24:18.663Z,22.73
2023-03-20T05:25:21.313Z,21.70
2023-03-20T05:26:25.427Z,22.00
2023-03-20T05:27:28.090Z,21.15
2023-03-20T05:28:30.588Z,22.80
2023-03-20T05:29:32.433Z,22.02
2023-03-20T05:30:34.745Z,21.98
2023-03-20T05:31:36.917Z,22.33
2023-03-20T05:32:39.073Z,22.63
2023-03-20T05:33:41.022Z,22.20
2023-03-20T05:34:42.871Z,22.15
2023-03-20T05:35:44.845Z,22.42
2023-03-20T05:36:46.838Z,23.67
2023-03-20T05:37:48.764Z,22.73
2023-03-20T05:38:50.954Z,23.05
2023-03-20T05:39:52.787Z,22.58
2023-03-20T05:40:58.680Z,23.30
2023-03-20T05:42:00.664Z,23.10
2023-03-20T05:43:02.528Z,23.23
2023-03-20T05:44:04.515Z,23.23
2023-03-20T05:45:07.284Z,24.58
2023-03-20T05:46:09.216Z,23.45
2023-03-20T05:47:11.514Z,25.98
2023-03-20T05:48:13.339Z,24.88
2023-03-20T05:49:15.353Z,25.88
2023-03-20T05:50:17.286Z,25.52
2023-03-20T05:51:19.157Z,25.40
2023-03-20T05:52:21.419Z,26.40
2023-03-20T05:53:23.297Z,26.00
2023-03-20T05:54:25.356Z,26.80
2023-03-20T05:55:27.215Z,26.60
2023-03-20T05:56:29.121Z,28.60
2023-03-20T05:57:31.197Z,27.25
2023-03-20T05:58:36.613Z,28.00
2023-03-20T05:59:38.483Z,25.98
2023-03-20T06:00:40.585Z,25.25
2023-03-20T06:01:42.454Z,24.70
2023-03-20T06:02:47.149Z,26.33
2023-03-20T06:03:52.450Z,25.08
2023-03-20T06:04:54.390Z,25.60
2023-03-20T06:05:56.496Z,25.75
2023-03-20T06:06:58.426Z,26.42
2023-03-20T06:08:00.333Z,27.30
2023-03-20T06:09:02.178Z,29.30
2023-03-20T06:10:04.330Z,29.90
2023-03-20T06:11:06.726Z,31.05
2023-03-20T06:12:08.599Z,30.20
2023-03-20T06:13:10.467Z,29.50
2023-03-20T06:14:12.390Z,27.45
2023-03-20T06:15:14.271Z,28.65
2023-03-20T06:16:16.407Z,29.20
2023-03-20T06:17:18.334Z,29.40
2023-03-20T06:18:20.212Z,29.75
2023-03-20T06:19:22.092Z,29.77
2023-03-20T06:20:24.329Z,28.27
2023-03-20T06:21:26.301Z,27.65
2023-03-20T06:22:28.205Z,28.05
2023-03-20T06:23:30.204Z,27.23
2023-03-20T06:24:32.207Z,26.23
2023-03-20T06:25:34.328Z,26.10
2023-03-20T06:26:36.480Z,25.92
2023-03-20T06:27:38.502Z,25.52
2023-03-20T06:28:40.376Z,25.35
2023-03-20T06:29:42.229Z,25.27
2023-03-20T06:30:44.626Z,24.40
2023-03-20T06:31:46.702Z,24.33
2023-03-20T06:32:48.593Z,24.80
2023-03-20T06:33:50.943Z,24.50
2023-03-20T06:34:52.870Z,25.48
2023-03-20T06:35:54.903Z,26.55
2023-03-20T06:36:57.081Z,25.95
2023-03-20T06:37:59.369Z,24.95
2023-03-20T06:39:01.676Z,23.95
2023-03-20T06:40:05.251Z,23.70
2023-03-20T06:41:07.453Z,24.02
2023-03-20T06:42:09.359Z,27.10
2023-03-20T06:43:12.554Z,27.40
2023-03-20T06:44:14.545Z,25.70
2023-03-20T06:45:16.540Z,26.05
2023-03-20T06:46:18.674Z,26.65
2023-03-20T06:47:20.768Z,27.40
2023-03-20T06:48:22.864Z,27.98
2023-03-20T06:49:24.757Z,25.95
2023-03-20T06:50:27.248Z,26.45
2023-03-20T06:51:29.174Z,26.42
2023-03-20T06:52:31.048Z,25.75
2023-03-20T06:53:35.314Z,25.40
2023-03-20T06:54:37.247Z,24.48
2023-03-20T06:55:39.264Z,24.70
2023-03-20T06:56:41.258Z,24.13
2023-03-20T06:57:43.175Z,24.52
2023-03-20T06:58:45.263Z,25.20
2023-03-20T06:59:47.894Z,25.90
2023-03-20T07:00:49.876Z,23.67
2023-03-20T07:01:52.803Z,23.58
2023-03-20T07:02:55.227Z,24.70
2023-03-20T07:03:57.272Z,24.80
2023-03-20T07:04:59.627Z,25.80
2023-03-20T07:06:01.613Z,25.05
2023-03-20T07:07:03.512Z,24.70
2023-03-20T07:08:05.972Z,25.58
2023-03-20T07:09:07.910Z,25.73
2023-03-20T07:10:10.326Z,24.95
2023-03-20T07:11:12.218Z,25.33
2023-03-20T07:12:15.382Z,25.83
2023-03-20T07:13:17.325Z,25.25
2023-03-20T07:14:19.166Z,26.00
2023-03-20T07:15:21.279Z,26.52
2023-03-20T07:16:23.201Z,25.48
2023-03-20T07:17:25.064Z,26.48
2023-03-20T07:18:27.153Z,27.40
2023-03-20T07:19:29.344Z,26.45
2023-03-20T07:20:31.578Z,25.92
2023-03-20T07:21:34.154Z,25.90
2023-03-20T07:22:36.355Z,25.58
2023-03-20T07:23:38.238Z,24.13
2023-03-20T07:24:40.106Z,25.38
2023-03-20T07:25:43.299Z,26.88
2023-03-20T07:26:45.925Z,24.90
2023-03-20T07:27:50.840Z,24.75
2023-03-20T07:28:52.905Z,24.13
2023-03-20T07:29:54.820Z,25.33
2023-03-20T07:30:56.982Z,25.05
2023-03-20T07:32:01.152Z,25.70
2023-03-20T07:33:03.303Z,26.00
2023-03-20T07:34:05.232Z,26.02
2023-03-20T07:35:09.326Z,26.27
2023-03-20T07:36:11.589Z,24.80
2023-03-20T07:37:13.734Z,24.52
2023-03-20T07:38:16.059Z,23.95
2023-03-20T07:39:18.027Z,25.65
2023-03-20T07:40:20.171Z,24.00
2023-03-20T07:41:22.048Z,25.00
2023-03-20T07:42:23.912Z,24.77
2023-03-20T07:43:26.002Z,24.30
2023-03-20T07:44:27.900Z,24.65
2023-03-20T07:45:29.782Z,25.25
2023-03-20T07:46:31.716Z,24.17
2023-03-20T07:47:33.616Z,24.20
2023-03-20T07:48:36.240Z,24.52
2023-03-20T07:49:38.146Z,23.73
2023-03-20T07:50:40.010Z,25.63
2023-03-20T07:51:42.333Z,26.20
2023-03-20T07:52:48.634Z,26.02
2023-03-20T07:53:50.509Z,26.30
2023-03-20T07:54:52.439Z,25.63
2023-03-20T07:55:54.554Z,24.83
2023-03-20T07:56:56.675Z,24.15
2023-03-20T07:57:58.554Z,24.90
2023-03-20T07:59:00.747Z,24.83
2023-03-20T08:00:04.809Z,24.52
2023-03-20T08:01:06.926Z,25.48
2023-03-20T08:02:30.155Z,25.15
2023-03-20T08:03:32.411Z,24.88
2023-03-20T08:04:34.375Z,24.77
2023-03-20T08:05:36.939Z,25.75
2023-03-20T08:06:46.158Z,25.52
2023-03-20T08:07:50.968Z,26.25
2023-03-20T08:08:53.033Z,24.52
2023-03-20T08:09:55.341Z,24.95
2023-03-20T08:10:57.344Z,26.02
2023-03-20T08:11:59.228Z,25.02
2023-03-20T08:13:01.137Z,23.77
2023-03-20T08:14:03.086Z,24.90
2023-03-20T08:15:05.779Z,23.92
2023-03-20T08:16:08.175Z,25.15
2023-03-20T08:17:15.430Z,24.75
2023-03-20T08:18:20.074Z,23.98
2023-03-20T08:19:22.022Z,24.25
2023-03-20T08:20:23.915Z,24.58
2023-03-20T08:21:26.098Z,23.63
2023-03-20T08:22:28.009Z,25.08
2023-03-20T08:23:30.373Z,24.10
2023-03-20T08:24:32.268Z,24.95
2023-03-20T08:25:34.552Z,24.45
2023-03-20T08:26:37.240Z,23.88
2023-03-20T08:27:39.290Z,23.98
2023-03-20T08:28:47.417Z,23.88
2023-03-20T08:29:50.050Z,24.92
2023-03-20T08:30:52.043Z,26.15
2023-03-20T08:31:54.029Z,24.75
2023-03-20T08:32:56.575Z,23.98
2023-03-20T08:33:58.719Z,25.05
2023-03-20T08:35:00.745Z,25.30
2023-03-20T08:36:02.846Z,25.02
2023-03-20T08:37:05.419Z,26.02
2023-03-20T08:38:07.327Z,24.70
2023-03-20T08:39:09.690Z,26.35
2023-03-20T08:40:12.282Z,25.25
2023-03-20T08:41:14.410Z,26.10
2023-03-20T08:42:16.712Z,24.67
2023-03-20T08:43:18.626Z,26.45
2023-03-20T08:44:20.499Z,24.38
2023-03-20T08:45:25.925Z,24.15
2023-03-20T08:46:27.918Z,24.25
2023-03-20T08:47:29.965Z,23.25
2023-03-20T08:48:32.059Z,25.10
2023-03-20T08:49:35.307Z,23.63
2023-03-20T08:50:38.258Z,23.90
2023-03-20T08:51:40.342Z,23.40
2023-03-20T08:52:44.251Z,23.73
2023-03-20T08:53:49.228Z,23.15
2023-03-20T08:54:51.309Z,23.33
2023-03-20T08:55:54.313Z,23.13
2023-03-20T08:56:56.589Z,23.60
2023-03-20T08:57:59.014Z,23.00
2023-03-20T08:59:01.043Z,23.33
2023-03-20T09:00:03.114Z,22.92
2023-03-20T09:01:07.999Z,22.77
2023-03-20T09:02:11.986Z,23.00
2023-03-20T09:03:19.821Z,23.65
2023-03-20T09:04:21.824Z,23.02
2023-03-20T09:05:24.234Z,23.88
2023-03-20T09:06:26.285Z,23.15
2023-03-20T09:07:28.348Z,22.92
2023-03-20T09:08:30.333Z,23.35
2023-03-20T09:09:32.521Z,23.42
2023-03-20T09:10:35.444Z,23.20
2023-03-20T09:11:37.568Z,23.85
2023-03-20T09:12:39.553Z,23.98
2023-03-20T09:13:41.534Z,24.42
2023-03-20T09:14:44.621Z,23.63
2023-03-20T09:15:46.783Z,24.15
2023-03-20T09:16:48.985Z,24.17
2023-03-20T09:17:51.001Z,24.45
2023-03-20T09:18:53.011Z,23.85
2023-03-20T09:19:54.938Z,23.50
2023-03-20T09:20:56.806Z,25.00
2023-03-20T09:21:58.681Z,24.95
2023-03-20T09:23:00.798Z,24.58
2023-03-20T09:24:02.791Z,24.50
2023-03-20T09:25:05.158Z,23.63
2023-03-20T09:26:07.118Z,23.83
2023-03-20T09:27:09.123Z,24.20
2023-03-20T09:28:11.310Z,23.45
2023-03-20T09:29:13.189Z,24.67
2023-03-20T09:30:15.345Z,23.00
2023-03-20T09:31:17.286Z,23.67
2023-03-20T09:32:19.374Z,23.30
2023-03-20T09:33:21.239Z,23.23
2023-03-20T09:34:24.296Z,23.35
2023-03-20T09:35:26.264Z,23.48
2023-03-20T09:36:28.174Z,22.50
2023-03-20T09:37:30.170Z,22.42
2023-03-20T09:38:32.188Z,22.10
2023-03-20T09:39:41.738Z,22.38
2023-03-20T09:41:02.764Z,21.67
2023-03-20T09:42:16.842Z,22.80
2023-03-20T09:43:26.983Z,21.52
2023-03-20T09:44:45.682Z,22.45
2023-03-20T09:46:01.052Z,22.23
2023-03-20T09:47:49.337Z,22.73
2023-03-20T09:49:12.438Z,22.48
2023-03-20T09:50:35.013Z,22.13
2023-03-20T09:51:45.375Z,22.45
2023-03-20T09:53:12.520Z,22.13
2023-03-20T09:54:47.039Z,21.83
2023-03-20T09:55:56.058Z,22.33
2023-03-20T09:56:58.487Z,22.15
2023-03-20T09:58:12.199Z,23.05
2023-03-20T09:59:16.170Z,23.10
2023-03-20T10:00:20.215Z,22.38
2023-03-20T10:01:27.386Z,23.13
2023-03-20T10:02:54.276Z,23.13
2023-03-20T10:03:58.602Z,23.45
2023-03-20T10:05:02.711Z,23.90
2023-03-20T10:06:08.147Z,24.40
2023-03-20T10:07:13.287Z,22.17
2023-03-20T10:08:17.197Z,22.52
2023-03-20T10:09:28.072Z,22.80
2023-03-20T10:10:42.070Z,22.58
2023-03-20T10:12:24.467Z,23.00
2023-03-20T10:13:38.461Z,21.75
2023-03-20T10:15:31.842Z,21.95
2023-03-20T10:16:46.788Z,22.10
2023-03-20T10:17:58.748Z,22.13
2023-03-20T10:19:11.032Z,21.58
2023-03-20T10:20:41.832Z,21.00
2023-03-20T10:21:47.018Z,22.02
2023-03-20T10:22:56.238Z,21.23
2023-03-20T10:24:04.747Z,22.92
2023-03-20T10:25:12.765Z,22.00
2023-03-20T10:26:21.866Z,21.90
2023-03-20T10:27:34.492Z,22.02
2023-03-20T10:28:58.621Z,22.48
2023-03-20T10:30:13.187Z,22.35
2023-03-20T10:31:56.027Z,21.70
2023-03-20T10:33:16.184Z,21.30
2023-03-20T10:34:58.956Z,21.08
2023-03-20T10:36:41.432Z,20.67
2023-03-20T10:38:15.546Z,20.83
2023-03-20T10:39:32.499Z,20.58
2023-03-20T10:40:41.254Z,22.38
2023-03-20T10:41:56.515Z,21.85
2023-03-20T10:43:02.832Z,21.33
2023-03-20T10:44:06.905Z,21.52
2023-03-20T10:45:27.747Z,20.65
2023-03-20T10:47:00.781Z,21.02
2023-03-20T10:48:09.711Z,20.50
2023-03-20T10:49:20.432Z,20.27
2023-03-20T10:50:33.300Z,20.77
2023-03-20T10:51:44.055Z,20.48
2023-03-20T10:52:49.689Z,19.92
2023-03-20T10:54:03.313Z,20.70
2023-03-20T10:55:15.800Z,20.67
2023-03-20T10:56:30.738Z,20.67
2023-03-20T10:57:38.203Z,21.25
2023-03-20T10:58:42.311Z,22.15
2023-03-20T10:59:51.885Z,20.92
2023-03-20T11:00:57.225Z,20.98
2023-03-20T11:01:59.133Z,20.38
2023-03-20T11:03:01.117Z,20.15
2023-03-20T11:04:03.190Z,21.73
2023-03-20T11:05:25.585Z,21.65
2023-03-20T11:06:32.379Z,20.50
2023-03-20T11:07:38.126Z,19.58
2023-03-20T11:08:42.587Z,21.13
2023-03-20T11:09:44.600Z,20.80
2023-03-20T11:10:46.490Z,23.33
2023-03-20T11:11:51.474Z,23.35
2023-03-20T11:12:53.464Z,25.15
2023-03-20T11:13:56.148Z,21.92
2023-03-20T11:15:14.804Z,22.30
2023-03-20T11:16:20.474Z,21.60
2023-03-20T11:17:22.418Z,22.60
2023-03-20T11:18:27.359Z,22.77
2023-03-20T11:19:34.039Z,22.67
2023-03-20T11:20:43.830Z,22.08
2023-03-20T11:21:47.725Z,21.15
2023-03-20T11:22:51.393Z,23.02
2023-03-20T11:23:54.508Z,23.20
2023-03-20T11:25:01.617Z,23.23
2023-03-20T11:26:06.708Z,24.23
2023-03-20T11:27:18.544Z,24.00
2023-03-20T11:28:31.407Z,24.27
2023-03-20T11:29:35.802Z,23.58
2023-03-20T11:30:46.013Z,23.83
2023-03-20T11:32:25.352Z,23.65
2023-03-20T11:33:28.925Z,23.65
2023-03-20T11:34:34.056Z,23.88
2023-03-20T11:35:36.218Z,24.25
2023-03-20T11:36:41.307Z,24.13
2023-03-20T11:37:46.656Z,24.35
2023-03-20T11:38:51.172Z,23.63
2023-03-20T11:40:09.023Z,24.02
2023-03-20T11:41:24.928Z,24.10
2023-03-20T11:42:30.679Z,24.15
2023-03-20T11:43:38.347Z,23.65
2023-03-20T11:44:41.675Z,24.58
2023-03-20T11:45:46.621Z,24.67
2023-03-20T11:47:03.368Z,25.45
2023-03-20T11:48:07.207Z,24.13
2023-03-20T11:49:21.610Z,24.38
2023-03-20T11:50:38.334Z,24.90
2023-03-20T11:51:40.530Z,25.10
2023-03-20T11:52:42.426Z,25.67
2023-03-20T11:53:48.222Z,26.45
2023-03-20T11:54:54.274Z,24.98
2023-03-20T11:56:27.017Z,26.75
2023-03-20T11:57:42.639Z,27.60
2023-03-20T11:58:54.633Z,27.02
2023-03-20T11:59:57.147Z,27.23
2023-03-20T12:01:01.114Z,28.17
2023-03-20T12:02:21.866Z,27.83
2023-03-20T12:03:45.368Z,29.40
2023-03-20T12:04:47.921Z,27.30
2023-03-20T12:05:49.816Z,27.55
2023-03-20T12:07:03.733Z,29.20
2023-03-20T12:08:25.602Z,28.42
2023-03-20T12:09:36.420Z,27.77
2023-03-20T12:10:42.457Z,28.25
2023-03-20T12:12:03.561Z,26.48
2023-03-20T12:13:21.011Z,27.13
2023-03-20T12:14:40.493Z,26.85
2023-03-20T12:15:48.091Z,26.70
2023-03-20T12:16:53.650Z,26.50
2023-03-20T12:18:09.260Z,27.00
2023-03-20T12:19:19.169Z,26.33
2023-03-20T12:20:34.053Z,27.35
2023-03-20T12:21:57.518Z,26.95
2023-03-20T12:23:30.450Z,26.90
2023-03-20T12:24:44.814Z,29.27
2023-03-20T12:26:07.587Z,30.00
2023-03-20T12:27:29.669Z,29.08
2023-03-20T12:28:50.730Z,30.50
2023-03-20T12:30:15.552Z,30.55
2023-03-20T12:31:42.336Z,28.80
2023-03-20T12:33:10.499Z,31.17
2023-03-20T12:34:21.527Z,31.55
2023-03-20T12:35:38.082Z,31.58
2023-03-20T12:36:45.638Z,29.88
2023-03-20T12:37:47.517Z,29.45
2023-03-20T12:38:49.693Z,30.95
2023-03-20T12:40:04.468Z,30.67
2023-03-20T12:41:23.789Z,30.40
2023-03-20T12:42:47.064Z,29.52
2023-03-20T12:44:01.098Z,31.30
2023-03-20T12:45:13.114Z,30.40
2023-03-20T12:46:37.431Z,30.83
2023-03-20T12:47:45.358Z,30.55
2023-03-20T12:48:53.305Z,30.67
2023-03-20T12:50:01.217Z,30.33
2023-03-20T12:51:14.883Z,30.27
2023-03-20T12:52:31.971Z,31.10
2023-03-20T12:54:01.674Z,32.75
2023-03-20T12:55:15.975Z,32.15
2023-03-20T12:56:28.198Z,31.88
2023-03-20T12:57:30.078Z,32.35
2023-03-20T12:59:05.829Z,32.30
2023-03-20T13:00:33.117Z,30.77
2023-03-20T13:01:59.304Z,29.42
2023-03-20T13:03:22.232Z,30.73
2023-03-20T13:04:48.651Z,30.02
2023-03-20T13:06:03.390Z,29.30
2023-03-20T13:07:19.236Z,29.30
2023-03-20T13:08:43.269Z,29.02
2023-03-20T13:09:48.157Z,29.45
2023-03-20T13:11:17.119Z,29.17
2023-03-20T13:12:46.384Z,28.65
2023-03-20T13:14:15.443Z,31.00
2023-03-20T13:15:34.432Z,29.85
2023-03-20T13:16:49.116Z,32.42
2023-03-20T13:18:09.041Z,33.72
2023-03-20T13:19:36.242Z,32.30
2023-03-20T13:20:49.913Z,31.40
2023-03-20T13:21:53.994Z,30.30
2023-03-20T13:23:31.736Z,27.88
2023-03-20T13:24:44.203Z,29.17
2023-03-20T13:26:10.764Z,28.65
2023-03-20T13:27:55.768Z,26.90
2023-03-20T13:29:01.070Z,25.60
2023-03-20T13:30:34.205Z,25.23
2023-03-20T13:31:48.376Z,23.27
2023-03-20T13:33:43.453Z,24.75
2023-03-20T13:34:54.629Z,23.02
2023-03-20T13:36:10.576Z,24.52
2023-03-20T13:37:35.863Z,24.52
2023-03-20T13:38:45.352Z,22.42
2023-03-20T13:40:06.384Z,21.92
2023-03-20T13:41:10.345Z,22.52
2023-03-20T13:42:21.986Z,22.02
2023-03-20T13:44:04.682Z,21.42
2023-03-20T13:45:33.125Z,21.92
2023-03-20T13:46:41.621Z,21.98
2023-03-20T13:47:47.010Z,21.83
2023-03-20T13:48:49.863Z,21.25
2023-03-20T13:50:06.160Z,22.70
2023-03-20T13:51:16.852Z,22.02
2023-03-20T13:52:24.230Z,22.33
2023-03-20T13:53:34.982Z,22.70
2023-03-20T13:54:53.912Z,22.77
2023-03-20T13:56:12.167Z,22.40
2023-03-20T13:57:49.417Z,22.77
2023-03-20T13:59:01.140Z,23.95
2023-03-20T14:00:15.461Z,23.52
2023-03-20T14:01:17.353Z,23.27
2023-03-20T14:03:10.098Z,23.35
2023-03-20T14:04:18.481Z,23.42
2023-03-20T14:05:23.120Z,23.67
2023-03-20T14:06:29.608Z,24.65
2023-03-20T14:07:37.222Z,22.67
2023-03-20T14:08:39.140Z,22.95
2023-03-20T14:09:43.514Z,24.27
2023-03-20T14:10:45.440Z,23.85
2023-03-20T14:11:47.536Z,24.15
2023-03-20T14:12:56.341Z,23.60
2023-03-20T14:14:27.265Z,24.88
2023-03-20T14:15:38.174Z,23.67
2023-03-20T14:16:41.315Z,23.98
2023-03-20T14:17:48.936Z,23.25
2023-03-20T14:19:11.110Z,22.70
2023-03-20T14:20:33.008Z,23.15
2023-03-20T14:21:36.169Z,23.33
2023-03-20T14:22:41.019Z,22.90
2023-03-20T14:23:47.704Z,23.05
2023-03-20T14:25:08.382Z,22.65
2023-03-20T14:26:32.380Z,22.35
2023-03-20T14:27:55.572Z,22.50
2023-03-20T14:29:20.103Z,21.90
2023-03-20T14:30:31.108Z,22.80
2023-03-20T14:32:53.232Z,22.15
2023-03-20T14:34:14.072Z,21.65
2023-03-20T14:35:29.176Z,23.10
2023-03-20T14:36:51.791Z,21.27
2023-03-20T14:38:18.098Z,22.13
2023-03-20T14:39:44.048Z,21.63
2023-03-20T14:41:02.448Z,21.45
2023-03-20T14:42:29.849Z,20.20
2023-03-20T14:43:58.845Z,22.90
2023-03-20T14:45:25.407Z,23.13
2023-03-20T14:46:49.571Z,24.60